Tiempo atmosférico en la estación meteorológica de Almería Aeropuerto, Almería (21 m.)



Fecha
DESCASC
Temp. máxima en grados centígrados (hora)
DESCASC
Temp. mínima en grados centígrados (hora)
DESCASC
Temp. media en grados centígrados
DESCASC
Racha de viento máxima en m/sg (hora)
DESCASC
Velocidad máxima media en intervalos de 10 minutos(hora)
DESCASC
Precipitaciones diarias en mm
DESCASC
Precipitaciones de 00:00 a 06:00 en mm
DESCASC
Precipitaciones de 06:00 a 12:00 en mm
DESCASC
Precipitaciones de 12:00 a 18:00 en mm
DESCASC
Precipitaciones de 18:00 a 24:00 en mm
DESCASC
08-12-2019 17.7 (13:30) 10.1 (07:10) 13.9 8.89 (14:10) 6.39 (14:30) 0 0 0 0 0
07-12-2019 18.9 (14:50) 11.7 (23:20) 15.3 12.5 (05:00) 7.22 (05:50) 0 0 0 0 0
06-12-2019 19.2 (14:50) 12.5 (00:20) 15.9 13.89 (14:40) 10 (12:50) 0 0 0 0 0
05-12-2019 17.9 (14:20) 10.4 (00:00) 14.1 10.28 (14:40) 7.78 (16:20) 0 0 0 0 0
04-12-2019 18.8 (14:50) 9.4 (00:00) 14.1 13.89 (15:20) 10 (15:50) -- 2.6 0 -- 0
03-12-2019 16.1 (22:00) 11.9 (00:00) 14 21.11 (13:50) 13.33 (13:50) 15.9 4.9 5.3 2.8 2.9
02-12-2019 16.8 (15:00) 11.3 (00:00) 14 10.83 (15:30) 8.06 (15:30) 3.5 0 0.7 0 2.8
01-12-2019 19 (13:50) 9.6 (00:00) 14.3 18.89 (15:50) 13.61 (15:50) 0 0 0 0 0
30-11-2019 18.8 (11:30) 10.9 (00:00) 14.8 7.22 (16:20) 5.83 (17:00) 0 0 0 0 0
29-11-2019 18.2 (15:20) 9.5 (00:00) 13.9 5.83 (05:30) 4.17 (06:00) 0 0 0 0 0
28-11-2019 19.1 (12:00) 10.5 (00:00) 14.8 5.83 (15:40) 4.44 (15:40) 0 0 0 0 0
27-11-2019 20.4 (12:40) 11.8 (00:00) 16.1 13.33 (15:10) 8.89 (17:00) 0 0 0 0 0
26-11-2019 19.7 (12:30) 11.7 (00:00) 15.7 6.11 (03:20) 4.72 (03:30) 0 0 0 0 0
25-11-2019 17.9 (10:20) 9.1 (00:00) 13.5 6.11 (04:50) 4.72 (20:10) 0 0 0 0 0
24-11-2019 18.8 (11:30) 10.3 (00:00) 14.5 17.5 (00:20) 11.39 (00:20) 0 0 0 0 0
23-11-2019 20.9 (13:30) 13.3 (00:00) 17.1 23.33 (16:00) 16.11 (16:00) 0 0 0 0 0
22-11-2019 17.1 (23:00) 14 (00:00) 15.6 20 (22:10) 14.72 (22:10) 16.4 0 1.5 8.1 6.8
21-11-2019 17.4 (15:10) 9.3 (00:00) 13.3 13.89 (15:00) 10.28 (15:00) 0 0 0 0 0
20-11-2019 17.6 (14:20) 9.2 (00:00) 13.4 15 (17:20) 10.83 (17:40) 0 0 0 0 0
19-11-2019 18.5 (13:00) 9.8 (00:00) 14.2 8.89 (08:40) 6.67 (09:10) 0 0 0 0 0
18-11-2019 19.6 (13:30) 12.1 (00:00) 15.9 18.89 (02:40) 13.06 (02:50) 1.8 0.5 1.3 0 0
17-11-2019 16.7 (14:40) 7.2 (00:00) 12 16.94 (23:40) 10.83 (23:40) 0 0 0 0 0
16-11-2019 17 (16:00) 9.6 (00:00) 13.3 15.28 (21:00) 8.89 (21:00) 0 0 0 0 0
15-11-2019 17.8 (12:40) 11.1 (00:00) 14.4 13.33 (05:40) 8.61 (17:00) 0 0 0 0 0
14-11-2019 18.4 (10:20) 9.7 (00:00) 14 26.39 (14:40) 18.06 (14:40) 0 0 0 0 0
13-11-2019 21.2 (14:20) 11 (00:00) 16.1 16.39 (15:00) 10.28 (14:30) 0 0 0 0 0
12-11-2019 20.8 (12:40) 12.1 (00:00) 16.4 9.72 (23:20) 6.11 (23:20) 0 0 0 0 0
11-11-2019 18.7 (22:30) 12.5 (20:10) 15.6 20 (03:30) 14.72 (04:30) 0 0 0 0 0
10-11-2019 19 (11:30) 11 (00:00) 15 22.22 (09:00) 13.61 (09:00) 0 0 0 0 0

Gráficas

Temp. máximas Temp. mínimas Temp. medias Precipitaciones Rachas de viento máximas Velocidades máximas media en intervalos de 10 minutos

Datos horarios

Fecha y hora oficial Temperatura (ºC) Velocidad del viento (km/h) Dirección del viento Racha (km/h) Dirección de racha Precipitación (mm) Presión (hPa) Tendencia (hPa) Humedad (%)
2019-12-09 23:00:00 14 6 Oeste 15 Oeste 0 1024 0.1 71
2019-12-09 22:00:00 13.8 5 Noroeste 15 Oeste 0 1024.2 0.4 88
2019-12-09 21:00:00 12.8 4 Oeste 13 Noroeste 0 1024 0.6 90
2019-12-09 20:00:00 13.9 2 Noroeste 13 Norte 0 1023.9 0.6 90
2019-12-09 19:00:00 15.3 0 Calma 5 Sur 0 1023.8 0.6 90
2019-12-09 18:00:00 16.6 2 Sudeste 8 Sur 0 1023.4 0.3 82
2019-12-09 17:00:00 18.7 2 Sur 9 Sudeste 0 1023.3 -0.2 72
2019-12-09 16:00:00 18.6 5 Sudeste 11 Sur 0 1023.2 -0.9 74
2019-12-09 15:00:00 18.6 3 Sudeste 11 Sur 0 1023.1 -1.7 72
2019-12-09 14:00:00 18.6 6 Sur 17 Sudoeste 0 1023.5 -0.9 76
2019-12-09 13:00:00 18.5 12 Sudoeste 15 Sudoeste 0 1024.1 0.1 71
2019-12-09 12:00:00 18.5 7 Sudoeste 15 Sur 0 1024.8 1.4 67
2019-12-09 11:00:00 17.3 6 Norte 13 Sur 0 1024.4 1.7 71
2019-12-09 10:00:00 16.8 6 Sudeste 13 Noroeste 0 1024 2.1 75
2019-12-09 09:00:00 13.7 9 Nordeste 21 Nordeste 0 1023.4 2.1 96
2019-12-09 08:00:00 12.4 5 Norte 11 Norte 0 1022.7 1.3 97
2019-12-09 07:00:00 11.6 6 Norte 11 Oeste 0 1021.9 0.5 96
2019-12-09 06:00:00 11.6 3 Oeste 9 Noroeste 0 1021.3 -0.1 94
2019-12-09 05:00:00 12.3 8 Norte 11 Nordeste 0 1021.4 0.1 91
2019-12-09 04:00:00 12.1 6 Noroeste 13 Norte 0 1021.4 -0.3 90
2019-12-09 03:00:00 12.7 6 Nordeste 13 Noroeste 0 1021.4 -0.4 94
2019-12-09 02:00:00 11.7 6 Oeste 13 Oeste 0 1021.3 -0.5 85
2019-12-09 01:00:00 11.9 7 Norte 15 Norte 0 1021.7 -0.2 95
2019-12-09 00:00:00 11.8 6 Norte 11 Norte 0 1021.8 -0.2 95
2019-12-08 23:00:00 12.3 4 Norte 15 Noroeste 0 1021.8 -0.1 94
2019-12-08 22:00:00 12.3 5 Noroeste 13 Noroeste 0 1021.9 0.4 93
2019-12-08 21:00:00 12.6 4 Norte 11 Noroeste 0 1022 0.7 95
2019-12-08 20:00:00 13.5 7 Noroeste 21 Oeste 0 1021.9 0.9 93
2019-12-08 19:00:00 14.6 15 Oeste 26 Sudoeste 0 1021.5 0.4 90
2019-12-08 18:00:00 15.3 15 Oeste 30 Sudoeste 0 1021.3 0.2 85
2019-12-08 17:00:00 16.6 21 Sudoeste 28 Sudoeste 0 1021 -0.7 78
2019-12-08 16:00:00 17.2 21 Sudoeste 32 Sudoeste 0 1021.1 -1.3 75
2019-12-08 15:00:00 17.3 23 Sudoeste 32 Sudoeste 0 1021.1 -2.2 78
2019-12-08 14:00:00 17.5 23 Sudoeste 30 Sudoeste 0 1021.7 -1.9 75
2019-12-08 13:00:00 17.5 18 Sudoeste 26 Sudoeste 0 1022.4 -0.8 74
2019-12-08 12:00:00 16.9 16 Sudoeste 24 Sudoeste 0 1023.3 0.5 73
2019-12-08 11:00:00 15.9 9 Oeste 15 Oeste 0 1023.6 1.3 72
2019-12-08 10:00:00 13.3 10 Noroeste 18 Noroeste 0 1023.2 1.3 67
2019-12-08 09:00:00 10.7 15 Noroeste 22 Noroeste 0 1022.8 1.1 75
2019-12-08 08:00:00 10.6 13 Noroeste 21 Noroeste 0 1022.3 0.7 75
2019-12-08 07:00:00 10.4 14 Noroeste 24 Noroeste 0 1021.9 -0.1 77
2019-12-08 06:00:00 11 15 Noroeste 24 Noroeste 0 1021.7 -0.7 75
2019-12-08 05:00:00 10.8 17 Noroeste 26 Noroeste 0 1021.6 -0.8 79
2019-12-08 04:00:00 11.5 14 Noroeste 22 Noroeste 0 1022 -0.7 77
2019-12-08 03:00:00 11.7 14 Noroeste 22 Norte 0 1022.4 -0.4 79
2019-12-08 02:00:00 11.7 14 Noroeste 24 Noroeste 0 1022.4 -0.2 82
2019-12-08 01:00:00 12 15 Noroeste 22 Noroeste 0 1022.7 0.3 86
2019-12-08 00:00:00 12.3 13 Noroeste 18 Noroeste 0 1022.8 0.7 88
2019-12-07 23:00:00 11.9 10 Noroeste 13 Norte 0 1022.6 1.1 94
2019-12-07 22:00:00 12.6 9 Norte 11 Norte 0 1022.4 1.5 93
2019-12-07 21:00:00 13.1 7 Nordeste 9 Nordeste 0 1022.1 1.8 91
2019-12-07 20:00:00 14.3 3 Oeste 13 Oeste 0 1021.5 1.6 89
2019-12-07 19:00:00 15 10 Sudoeste 17 Sudoeste 0 1020.9 1.3 86
2019-12-07 18:00:00 16 12 Sudoeste 17 Sudoeste 0 1020.3 0.9 80
2019-12-07 17:00:00 17.4 10 Sudoeste 17 Sudoeste 0 1019.9 0.4 76
2019-12-07 16:00:00 18 14 Sudoeste 18 Sudoeste 0 1019.6 -0.6 71
2019-12-07 15:00:00 18.7 11 Sur 13 Sur 0 1019.4 -1.4 63
2019-12-07 14:00:00 18.1 8 Sudoeste 11 Sudoeste 0 1019.5 -1.5 68
2019-12-07 13:00:00 18.4 6 Sur 13 Noroeste 0 1020.2 0 70
2019-12-07 12:00:00 16.8 7 Oeste 18 Norte 0 1020.8 1.3 59
2019-12-07 11:00:00 15.2 12 Noroeste 28 Noroeste 0 1021 2.1 63
2019-12-07 10:00:00 14.4 14 Norte 24 Norte 0 1020.2 1.7 67
2019-12-07 09:00:00 13.5 17 Norte 30 Norte 0 1019.5 1.7 70
2019-12-07 08:00:00 13.3 19 Norte 28 Norte 0 1018.9 1 71
2019-12-07 07:00:00 14.5 17 Norte 33 Noroeste 0 1018.5 0.3 65
2019-12-07 06:00:00 14.7 25 Noroeste 39 Noroeste 0 1017.8 -0.6 65
2019-12-07 05:00:00 14.8 25 Noroeste 45 Noroeste 0 1017.9 -0.7 65
2019-12-07 04:00:00 14.8 23 Noroeste 39 Noroeste 0 1018.2 -0.4 65
2019-12-07 03:00:00 14.6 21 Noroeste 35 Noroeste 0 1018.4 -0.6 66
2019-12-07 02:00:00 14.7 22 Noroeste 32 Noroeste 0 1018.6 -0.6 67
2019-12-07 01:00:00 14.6 19 Noroeste 30 Noroeste 0 1018.6 -0.3 68
2019-12-07 00:00:00 13.7 12 Norte 21 Noroeste 0 1019 0.2 74
2019-12-06 23:00:00 14.2 7 Norte 13 Norte 0 1019.2 0.8 73
2019-12-06 22:00:00 14.4 0 Calma 21 Este 0 1018.9 1 74
2019-12-06 21:00:00 14.8 15 Este 30 Este 0 1018.8 1.5 75
2019-12-06 20:00:00 15.2 21 Este 33 Nordeste 0 1018.4 1.6 74
2019-12-06 19:00:00 15.9 24 Nordeste 37 Nordeste 0 1017.9 1.5 68
2019-12-06 18:00:00 16.1 19 Nordeste 39 Nordeste 0 1017.3 1.3 68
2019-12-06 17:00:00 17.2 31 Nordeste 48 Este 0 1016.8 0.2 64
2019-12-06 16:00:00 18.2 31 Este 46 Nordeste 0 1016.4 -1 59
2019-12-06 15:00:00 19 35 Nordeste 50 Nordeste 0 1016 -2.4 57
2019-12-06 14:00:00 19 30 Nordeste 48 Nordeste 0 1016.6 -2 60
2019-12-06 13:00:00 18 33 Nordeste 48 Nordeste 0 1017.4 -0.8 61
2019-12-06 12:00:00 18.5 26 Nordeste 46 Nordeste 0 1018.4 0.9 60
2019-12-06 11:00:00 18.1 19 Nordeste 37 Nordeste 0 1018.6 1.8 60
2019-12-06 10:00:00 17.3 21 Norte 41 Norte 0 1018.2 1.7 61
2019-12-06 09:00:00 15.8 17 Norte 32 Norte 0 1017.5 1.4 66
2019-12-06 08:00:00 15 17 Norte 32 Nordeste 0 1016.8 1 68
2019-12-06 07:00:00 15.6 18 Norte 42 Norte 0 1016.5 0.6 64
2019-12-06 06:00:00 15.7 14 Norte 42 Nordeste 0 1016.1 0.6 61
2019-12-06 05:00:00 14.8 9 Norte 21 Norte 0 1015.8 0.4 66
2019-12-06 04:00:00 14.1 4 Noroeste 22 Nordeste 0 1015.9 0.2 70
2019-12-06 03:00:00 14.5 7 Norte 32 Nordeste 0 1015.5 -0.6 68
2019-12-06 02:00:00 15.2 9 Norte 26 Norte 0 1015.4 -0.6 64
2019-12-06 01:00:00 14.4 12 Norte 24 Norte 0 1015.7 0.1 69
2019-12-06 00:00:00 13.2 9 Norte 17 Norte 0 1016.1 0.6 76
2019-12-05 23:00:00 14.1 10 Norte 22 Nordeste 0 1016 1.1 72
2019-12-05 22:00:00 15.2 17 Nordeste 33 Nordeste 0 1015.6 1.6 69
2019-12-05 21:00:00 14.9 14 Nordeste 35 Nordeste 0 1015.5 2.2 71
2019-12-05 20:00:00 15 20 Nordeste 32 Nordeste 0 1014.9 2 72
2019-12-05 19:00:00 14.6 19 Nordeste 32 Nordeste 0 1014 1.6 72
2019-12-05 18:00:00 15.4 18 Nordeste 37 Nordeste 0 1013.3 1.3 68
2019-12-05 17:00:00 16 24 Nordeste 37 Este 0 1012.9 0.5 70
2019-12-05 16:00:00 16.8 26 Este 37 Nordeste 0 1012.4 -0.6 66
2019-12-05 15:00:00 17.5 27 Este 37 Este 0 1012 -1.4 59
2019-12-05 14:00:00 17.6 26 Nordeste 35 Este 0 1012.4 -0.7 61
2019-12-05 13:00:00 16.6 22 Este 35 Nordeste 0 1013 0.6 64
2019-12-05 12:00:00 16.1 17 Este 26 Nordeste 0 1013.4 2.1 66
2019-12-05 11:00:00 14.5 15 Noroeste 22 Noroeste 0 1013.1 2.7 65
2019-12-05 10:00:00 11.9 18 Noroeste 30 Noroeste 0 1012.4 3.1 71
2019-12-05 09:00:00 11.5 17 Norte 30 Noroeste 0 1011.3 2.6 73
2019-12-05 08:00:00 11 21 Noroeste 28 Noroeste 0 1010.4 1.8 76
2019-12-05 07:00:00 10.8 18 Norte 33 Norte 0 1009.3 0.8 80
2019-12-05 06:00:00 11.6 23 Noroeste 35 Noroeste 0 1008.7 0.7 76
2019-12-05 05:00:00 11.5 15 Noroeste 26 Norte 0 1008.6 0.8 76
2019-12-05 04:00:00 11.9 19 Noroeste 26 Norte 0 1008.5 0.9 77
2019-12-05 03:00:00 11.6 13 Norte 30 Noroeste 0 1008 0.5 83
2019-12-05 02:00:00 11.7 20 Noroeste 28 Noroeste 0 1007.8 0.5 86
2019-12-05 01:00:00 10.8 9 Noroeste 13 Noroeste 0 1007.6 1 94
2019-12-05 00:00:00 11.6 9 Norte 11 Norte 0 1007.5 1.6 94
2019-12-04 23:00:00 11.8 4 Norte 8 Norte 0 1007.3 2 93
2019-12-04 22:00:00 12.7 6 Nordeste 15 Norte 0 1006.6 2 91
2019-12-04 21:00:00 13.6 2 Noroeste 24 Oeste 0 1005.9 2 85
2019-12-04 20:00:00 14.7 22 Oeste 45 Oeste 0 1005.3 1.8 79
2019-12-04 19:00:00 15.3 33 Sudoeste 48 Sudoeste 0 1004.6 1.9 80
2019-12-04 18:00:00 15.9 31 Sudoeste 42 Sudoeste 0 1003.9 1.5 80
2019-12-04 17:00:00 16.3 32 Sudoeste 42 Sudoeste 0 1003.5 -- 79
2019-12-04 16:00:00 17.5 35 Sudoeste 50 Sudoeste 0 1002.7 -0.7 72
2019-12-04 15:00:00 18.4 34 Sudoeste 48 Sudoeste -- 1002.4 -1.7 66
2019-12-04 14:00:00 -- 13 Sudoeste 24 Sur -- -- -- --
2019-12-04 13:00:00 17.6 14 Sur -- -- -- 1003.4 -0.3 69
2019-12-04 12:00:00 17 12 Sudoeste 33 Sudoeste 0 1004.1 0.2 72
2019-12-04 11:00:00 16.6 13 Oeste 26 Oeste 0 1004.2 0.5 66
2019-12-04 10:00:00 14.5 8 Oeste 15 Oeste 0 1003.7 0.5 70
2019-12-04 09:00:00 11 9 Oeste 15 Oeste 0 1003.9 1 85
2019-12-04 08:00:00 10 9 Oeste 21 Oeste 0 1003.7 0.1 84
2019-12-04 07:00:00 9.9 3 Sur 15 Noroeste 0 1003.2 -1.7 84
2019-12-04 06:00:00 11.6 13 Noroeste 28 Oeste 0 1002.9 -2.6 76
2019-12-04 05:00:00 12 13 Oeste 22 Oeste 0 1003.6 -2.4 77
2019-12-04 04:00:00 11.5 15 Noroeste 22 Noroeste 0 1004.9 -1.8 83
2019-12-04 03:00:00 11.1 13 Noroeste 18 Noroeste 0 1005.5 -1.9 85
2019-12-04 02:00:00 11.7 9 Noroeste 22 Oeste 0 1006 -1.3 88
2019-12-04 01:00:00 11.6 13 Oeste 22 Oeste 2.6 1006.7 0 93
2019-12-04 00:00:00 12 14 Oeste 28 Oeste 2.6 1007.4 0.7 88
2019-12-03 23:00:00 13.2 14 Oeste 26 Noroeste 0.3 1007.3 1.1 77
2019-12-03 22:00:00 16 23 Noroeste 42 Noroeste 0 1006.7 0.7 52
2019-12-03 21:00:00 14.4 15 Norte 33 Norte 0 1006.7 0.6 64
2019-12-03 20:00:00 13.5 10 Nordeste 18 Nordeste 0 1006.2 0.8 72
2019-12-03 19:00:00 13.7 18 Norte 35 Nordeste 0 1006 1 72
2019-12-03 18:00:00 14.3 17 Nordeste 42 Nordeste 0 1006.1 1.1 68
2019-12-03 17:00:00 14.5 18 Norte 50 Nordeste 0 1005.4 0.7 67
2019-12-03 16:00:00 14 30 Nordeste 54 Nordeste 0.1 1005 -0.5 74
2019-12-03 15:00:00 13.2 21 Norte 67 Nordeste 2.5 1005 -1 82
2019-12-03 14:00:00 15.2 46 Nordeste 76 Nordeste 0 1004.7 -1.4 70
2019-12-03 13:00:00 14.8 35 Nordeste 63 Norte 0.2 1005.5 -0.5 74
2019-12-03 12:00:00 12.7 33 Nordeste 59 Norte 1 1006 -0.2 87
2019-12-03 11:00:00 14.8 34 Nordeste 63 Nordeste 0.4 1006.1 -0.1 74
2019-12-03 10:00:00 13.8 39 Nordeste 63 Nordeste 0.8 1006 -0.2 81
2019-12-03 09:00:00 14.7 25 Norte 55 Noroeste 0.7 1006.2 0.3 71
2019-12-03 08:00:00 12 22 Norte 50 Norte 2.3 1006.2 -0.2 87
2019-12-03 07:00:00 14.5 5 Oeste 50 Noroeste 0.1 1006.2 -0.5 70
2019-12-03 06:00:00 14.6 16 Norte 28 Noroeste 0 1005.9 -1.7 71
2019-12-03 05:00:00 14.3 23 Norte 42 Nordeste 0.6 1006.4 -1.8 75
2019-12-03 04:00:00 15.4 29 Norte 50 Norte 0 1006.7 -2.3 72
2019-12-03 03:00:00 15.1 18 Norte 45 Norte 0 1007.6 -1.6 76
2019-12-03 02:00:00 14.6 23 Norte 45 Nordeste 2.6 1008.2 -1.6 82
2019-12-03 01:00:00 14.5 16 Norte 32 Nordeste 1.7 1009 -0.8 84
2019-12-03 00:00:00 14 15 Norte 28 Norte 0.3 1009.2 -0.6 89
2019-12-02 23:00:00 13.7 14 Norte 26 Nordeste 0.8 1009.8 0.6 88
2019-12-02 22:00:00 14 10 Norte 28 Norte 0 1009.8 1 87
2019-12-02 21:00:00 14.2 21 Nordeste -- -- -- 1009.8 1.4 89
2019-12-02 20:00:00 13.7 18 Nordeste 28 Nordeste 1.1 1009.2 1.3 88
2019-12-02 19:00:00 13.6 15 Nordeste 28 Este 0.3 1008.8 1 89
2019-12-02 18:00:00 14.3 18 Este 32 Este 0 1008.4 0.7 82
2019-12-02 17:00:00 15.6 24 Nordeste 37 Este 0 1007.9 0 69
2019-12-02 16:00:00 16.3 24 Este 39 Este 0 1007.8 -0.7 66
2019-12-02 15:00:00 16.8 21 Este 32 Este 0 1007.7 -1.4 71
2019-12-02 14:00:00 16.2 24 Este 32 Este 0 1007.9 -1.3 75
2019-12-02 13:00:00 16 16 Este 24 Este 0 1008.5 -0.2 76
2019-12-02 12:00:00 15.9 18 Este 26 Este 0 1009.1 1.2 80
2019-12-02 11:00:00 14 6 Norte 17 Noroeste 0.1 1009.2 1.5 88
2019-12-02 10:00:00 11.7 13 Norte 18 Noroeste 0.6 1008.7 1.7 87
2019-12-02 09:00:00 12.1 10 Noroeste 17 Norte 0 1007.9 1.4 82
2019-12-02 08:00:00 11.5 13 Norte 21 Norte 0 1007.7 0.8 80
2019-12-02 07:00:00 11.6 12 Noroeste 17 Norte 0 1007 0.2 89
2019-12-02 06:00:00 12.6 10 Norte 15 Norte 0 1006.5 -0.7 90
2019-12-02 05:00:00 13.3 5 Oeste 21 Sudoeste 0 1006.9 -0.2 90
2019-12-02 04:00:00 14.4 12 Sudoeste 26 Sudoeste 0 1006.8 -0.6 86
2019-12-02 03:00:00 14.8 18 Sudoeste 28 Sudoeste 0 1007.2 -0.4 85
2019-12-02 02:00:00 14.2 15 Oeste 32 Oeste 0 1007.1 -0.4 85
2019-12-02 01:00:00 14.9 21 Sudoeste 35 Sudoeste 0 1007.4 -0.1 83
2019-12-02 00:00:00 14.8 24 Oeste 41 Sudoeste 0 1007.6 -0.2 83
2019-12-01 23:00:00 14.9 26 Oeste 35 Oeste 0 1007.5 -0.1 82
2019-12-01 22:00:00 15 7 Oeste 21 Sudoeste 0 1007.5 0 73
2019-12-01 21:00:00 14.7 14 Sudoeste 41 Oeste 0 1007.8 0.6 81
2019-12-01 20:00:00 15.1 33 Sudoeste 46 Sudoeste 0 1007.6 0.1 82
2019-12-01 19:00:00 15.2 32 Sudoeste 50 Sudoeste 0 1007.5 0 81
2019-12-01 18:00:00 15.8 43 Sudoeste 58 Sudoeste 0 1007.2 -0.5 78
2019-12-01 17:00:00 16.7 40 Sudoeste 63 Oeste 0 1007.5 -1.2 75
2019-12-01 16:00:00 17.6 43 Sudoeste 68 Oeste 0 1007.5 -1.7 68
2019-12-01 15:00:00 17.9 41 Sudoeste 61 Sudoeste 0 1007.7 -2.5 66
2019-12-01 14:00:00 18.4 31 Sudoeste 46 Oeste 0 1008.7 -2.1 65
2019-12-01 13:00:00 17.4 34 Sudoeste 48 Oeste 0 1009.2 -1.7 71
2019-12-01 12:00:00 18.6 24 Oeste 39 Oeste 0 1010.2 -0.4 69
2019-12-01 11:00:00 15.9 2 Norte 11 Norte 0 1010.8 0.2 79
2019-12-01 10:00:00 14.1 6 Oeste 11 Noroeste 0 1010.9 0.4 89
2019-12-01 09:00:00 12.8 9 Norte 15 Noroeste 0 1010.6 0 93
2019-12-01 08:00:00 10.8 10 Norte 13 Norte 0 1010.6 -0.2 95
2019-12-01 07:00:00 10.8 9 Norte 13 Norte 0 1010.5 -0.9 96
2019-12-01 06:00:00 10 5 Norte 11 Norte 0 1010.6 -1.2 96
2019-12-01 05:00:00 11.8 0 Calma 13 Sudoeste 0 1010.8 -1.4 94
2019-12-01 04:00:00 11.1 7 Norte 13 Norte 0 1011.4 -1.4 95
2019-12-01 03:00:00 11.2 4 Noroeste 11 Noroeste 0 1011.8 -1.5 95
2019-12-01 02:00:00 11.9 4 Noroeste 9 Noroeste 0 1012.2 -1.7 93
2019-12-01 01:00:00 11.8 9 Norte 15 Noroeste 0 1012.8 -1.5 95
2019-12-01 00:00:00 11.1 10 Norte 13 Noroeste 0 1013.3 -1.3 96
2019-11-30 23:00:00 12.5 5 Oeste 13 Oeste 0 1013.9 -1 97
2019-11-30 22:00:00 12.8 12 Oeste 21 Sudoeste 0 1014.3 -0.6 94
2019-11-30 21:00:00 14.7 17 Sudoeste 26 Sudoeste 0 1014.6 -0.5 93
2019-11-30 20:00:00 15.2 14 Sudoeste 26 Sudoeste 0 1014.9 -0.5 92
2019-11-30 19:00:00 15.7 12 Sudoeste 26 Sudoeste 0 1014.9 -1.1 89
2019-11-30 18:00:00 16.3 20 Sudoeste 26 Sudoeste 0 1015.1 -1.1 90
2019-11-30 17:00:00 17.3 21 Sudoeste 26 Sudoeste 0 1015.4 -1.9 84
2019-11-30 16:00:00 18.1 13 Sur 18 Sudoeste 0 1016 -2.3 81
2019-11-30 15:00:00 18.4 8 Sur 13 Sudoeste 0 1016.2 -3.1 79
2019-11-30 14:00:00 18 10 Sur 17 Sudoeste 0 1017.3 -2.5 80
2019-11-30 13:00:00 17.8 12 Sudoeste 17 Sudoeste 0 1018.3 -1.3 76
2019-11-30 12:00:00 18.2 12 Sudoeste 17 Sudoeste 0 1019.3 0.2 67
2019-11-30 11:00:00 17.5 2 Este 8 Sur 0 1019.8 1 65
2019-11-30 10:00:00 16 4 Sur 8 Sur 0 1019.6 1.3 72
2019-11-30 09:00:00 12.9 2 Norte 8 Norte 0 1019.1 0.9 87
2019-11-30 08:00:00 11.4 6 Norte 11 Norte 0 1018.8 0.5 88
2019-11-30 07:00:00 11.3 6 Norte -- -- 0 1018.3 -0.1 91
2019-11-30 06:00:00 10.9 3 Noroeste 5 Norte 0 1018.2 -0.2 93
2019-11-30 05:00:00 11.6 2 Noroeste 9 Noroeste 0 1018.3 -0.3 90
2019-11-30 04:00:00 11.3 5 Noroeste 8 Noroeste 0 1018.4 -0.3 92
2019-11-30 03:00:00 11.4 6 Noroeste -- -- 0 1018.4 -0.6 94
2019-11-30 02:00:00 12.1 4 Norte -- -- 0 1018.6 -0.1 92
2019-11-30 01:00:00 11.6 11 Noroeste 11 Noroeste 0 1018.7 0 94
2019-11-30 00:00:00 11.5 5 Norte 8 Norte 0 1019 0.2 94
2019-11-29 23:00:00 12.5 0 Calma 5 Oeste 0 1018.7 0.1 93
2019-11-29 22:00:00 13.2 3 Norte 9 Norte 0 1018.7 0.5 92
2019-11-29 21:00:00 13.2 6 Norte 8 Norte 0 1018.8 0.8 94
2019-11-29 20:00:00 13.8 5 Norte -- -- 0 1018.6 1.1 93
2019-11-29 19:00:00 14.7 4 Norte 8 Norte 0 1018.2 1.1 92
2019-11-29 18:00:00 16.1 0 Calma 9 Sur 0 1018 0.6 86
2019-11-29 17:00:00 17.4 7 Sur 11 Sur 0 1017.5 -0.4 82
2019-11-29 16:00:00 17.9 6 Sur 13 Sur 0 1017.1 -1.3 80
2019-11-29 15:00:00 17.9 8 Sur 13 Sur 0 1017.4 -1.5 78
2019-11-29 14:00:00 17.9 10 Sur -- -- -- 1017.9 -1 78
2019-11-29 13:00:00 17.9 10 Sur 15 Sur 0 1018.4 0 75
2019-11-29 12:00:00 17.5 11 Sudeste 15 Sur 0 1018.9 1.1 75
2019-11-29 11:00:00 16.5 5 Sudoeste 9 Sudoeste 0 1018.9 1.7 70
2019-11-29 10:00:00 15.6 4 Sudeste 8 Nordeste 0 1018.4 1.6 74
2019-11-29 09:00:00 11.8 5 Norte 11 Noroeste 0 1017.8 1.6 87
2019-11-29 08:00:00 9.6 6 Norte 8 Norte 0 1017.2 1.1 91
2019-11-29 07:00:00 11 3 Sudeste 21 Norte 0 1016.8 0.6 83
2019-11-29 06:00:00 12.5 15 Noroeste 21 Noroeste 0 1016.2 -0.2 74
2019-11-29 05:00:00 11.3 13 Norte 17 Norte 0 1016.1 0.2 88
2019-11-29 04:00:00 10.8 8 Norte 11 Norte 0 1016.2 0 95
2019-11-29 03:00:00 10.8 5 Norte 13 Nordeste 0 1016.4 0.2 91
2019-11-29 02:00:00 10.8 8 Norte 11 Norte 0 1015.9 -0.1 91
2019-11-29 01:00:00 11 9 Norte 11 Norte 0 1016.2 0.2 91
2019-11-29 00:00:00 11.6 3 Nordeste 13 Norte 0 1016.2 0.7 87
2019-11-28 23:00:00 11.8 8 Norte 13 Norte 0 1016 0.9 90
2019-11-28 22:00:00 11.8 8 Norte 9 Norte 0 1016 1.3 91
2019-11-28 21:00:00 13 4 Nordeste 8 Nordeste 0 1015.5 1 88
2019-11-28 20:00:00 13.3 3 Sudeste 9 Sur 0 1015.1 0.8 87
2019-11-28 19:00:00 14.8 0 Calma 4 Noroeste 0 1014.7 0.4 86
2019-11-28 18:00:00 16.6 0 Calma 8 Sudoeste 0 1014.5 0 77
2019-11-28 17:00:00 17.7 6 Sur 17 Sur 0 1014.3 -- 73
2019-11-28 16:00:00 17.8 12 Sudoeste 21 Sudoeste 0 1014.3 -1.2 78
2019-11-28 15:00:00 18.4 12 Sur 17 Sudoeste 0 1014.5 -2 75
2019-11-28 14:00:00 -- -- -- -- -- -- -- -- --
2019-11-28 13:00:00 18.5 10 Sur 13 Sur 0 1015.5 -0.8 66
2019-11-28 12:00:00 18.8 8 Sur 13 Sur 0 1016.5 0.9 63
2019-11-28 11:00:00 18.5 6 Sur 13 Norte 0 1016.7 2 61
2019-11-28 10:00:00 16.5 4 Nordeste 13 Norte 0 1016.3 2.3 65
2019-11-28 09:00:00 12.4 8 Norte 11 Norte 0 1015.6 2.1 76
2019-11-28 08:00:00 10.6 10 Norte -- -- 0 1014.7 1.7 85
2019-11-28 07:00:00 10.9 8 Norte 13 Norte 0 1014 1.1 82
2019-11-28 06:00:00 11.5 7 Nordeste 15 Noroeste 0 1013.5 0.4 79
2019-11-28 05:00:00 12.5 12 Noroeste 15 Norte 0 1013 0.2 74
2019-11-28 04:00:00 12.1 3 Norte 15 Este 0 1012.9 -0.2 86
2019-11-28 03:00:00 12.8 10 Nordeste 15 Norte 0 1013.1 0.1 86
2019-11-28 02:00:00 13.1 11 Norte 17 Norte 0 1012.8 0.1 90
2019-11-28 01:00:00 12.4 8 Nordeste 15 Norte 0 1013.1 1.1 97
2019-11-28 00:00:00 12.6 4 Noroeste 13 Sudoeste 0 1013 1.4 96
2019-11-27 23:00:00 13.8 5 Este 21 Nordeste 0 1012.7 1.4 93
2019-11-27 22:00:00 14.1 14 Nordeste 18 Nordeste 0 1012 1.3 94
2019-11-27 21:00:00 13.6 11 Nordeste 13 Nordeste 0 1011.6 1.8 95
2019-11-27 20:00:00 14.8 3 Norte 13 Oeste 0 1011.3 2 91
2019-11-27 19:00:00 15.8 11 Oeste 32 Oeste 0 1010.7 1.7 87
2019-11-27 18:00:00 16.9 22 Oeste 41 Sudoeste 0 1009.8 0.5 82
2019-11-27 17:00:00 18.4 32 Sudoeste 46 Sudoeste 0 1009.3 -0.8 76
2019-11-27 16:00:00 19.3 29 Sudoeste 48 Sudoeste 0 1009 -1.8 71
2019-11-27 15:00:00 19.4 26 Sudoeste 41 Sudoeste 0 1009.3 -2.2 73
2019-11-27 14:00:00 19.5 21 Sudoeste 33 Sudoeste 0 1010.1 -1.5 74
2019-11-27 06:00:00 12.1 5 Nordeste 13 Norte 0 1008.8 -0.5 93
2019-11-27 05:00:00 12.4 8 Norte 11 Norte 0 1008.8 -0.5 93
2019-11-27 04:00:00 12.7 3 Nordeste 11 Sur 0 1009.1 -0.6 92
2019-11-27 03:00:00 13 4 Sur 11 Nordeste 0 1009.3 -0.9 91
2019-11-27 02:00:00 13 4 Norte 17 Norte 0 1009.3 -1 94
2019-11-27 01:00:00 12.1 3 Norte 15 Norte 0 1009.7 -0.7 96
2019-11-27 00:00:00 12.3 6 Norte 13 Norte 0 1010.2 -0.4 96
2019-11-26 23:00:00 12.8 5 Norte 13 Norte 0 1010.3 -0.3 95
2019-11-26 22:00:00 13.5 8 Nordeste 11 Nordeste 0 1010.4 -0.2 96
2019-11-26 21:00:00 14.7 10 Norte 17 Nordeste 0 1010.6 0.1 96
2019-11-26 20:00:00 14.5 6 Nordeste 8 Nordeste 0 1010.6 0.3 96
2019-11-26 19:00:00 15.2 5 Nordeste 11 Norte 0 1010.6 0.2 94
2019-11-26 18:00:00 16.1 7 Sudeste 11 Sudeste 0 1010.5 -0.3 90
2019-11-26 17:00:00 16.9 8 Sudeste 11 Sudeste 0 1010.3 -1.1 87
2019-11-26 16:00:00 18.2 6 Sudeste 11 Sudeste 0 1010.4 -1.9 81
2019-11-26 15:00:00 17.5 3 Sur 13 Sur 0 1010.8 -2 84
2019-11-26 14:00:00 18.1 8 Sur 22 Sudoeste 0 1011.4 -1.8 82
2019-11-26 13:00:00 18.2 13 Sudoeste 21 Sudoeste 0 1012.3 -0.7 76
2019-11-26 12:00:00 19.3 7 Sudoeste 13 Sur 0 1012.8 -0.1 64
2019-11-26 11:00:00 18.9 5 Sudeste 13 Noroeste 0 1013.2 0.7 66
2019-11-26 10:00:00 16.7 9 Oeste 18 Oeste 0 1013 0.7 66
2019-11-26 09:00:00 14.7 10 Noroeste 17 Noroeste 0 1012.9 0.7 72
2019-11-26 08:00:00 12.9 5 Nordeste 18 Norte 0 1012.5 0.1 84
2019-11-26 07:00:00 13.2 5 Noroeste 15 Noroeste 0 1012.3 -0.2 86
2019-11-26 06:00:00 12 3 Este 22 Norte 0 1012.2 -0.3 91
2019-11-26 05:00:00 14 13 Norte 18 Norte 0 1012.4 0 79
2019-11-26 04:00:00 13.2 6 Norte 22 Oeste 0 1012.5 -0.6 91
2019-11-26 03:00:00 14.6 3 Este 11 Norte 0 1012.5 -0.9 78
2019-11-26 02:00:00 14 8 Norte 15 Norte 0 1012.4 -0.8 83
2019-11-26 01:00:00 13.8 7 Nordeste 17 Noroeste 0 1013.1 0 86
2019-11-26 00:00:00 14 13 Oeste 17 Norte 0 1013.4 0.6 92
2019-11-25 23:00:00 14.6 3 Nordeste 21 Este 0 1013.2 0.8 92
2019-11-25 22:00:00 14.5 13 Nordeste 18 Nordeste 0 1013.1 1.2 93
2019-11-25 21:00:00 14.7 13 Este 22 Este 0 1012.8 0.8 95
2019-11-25 20:00:00 14.5 12 Nordeste 17 Nordeste 0 1012.4 0.2 95
2019-11-25 19:00:00 14.8 9 Nordeste 11 Nordeste 0 1011.9 -0.2 93
2019-11-25 18:00:00 16.5 4 Sudeste 11 Sur 0 1012 -0.5 87
2019-11-25 17:00:00 17.9 6 Sur 11 Sur 0 1012.2 -0.9 78
2019-11-25 16:00:00 17.2 7 Sur 17 Sudoeste 0 1012.1 -1.9 80
2019-11-25 15:00:00 17.2 9 Sudoeste 17 Sudoeste 0 1012.5 -2.1 74
2019-11-25 14:00:00 16.3 11 Sudoeste 15 Sudoeste 0 1013.1 -1.8 74
2019-11-25 13:00:00 16.3 11 Sur 18 Sur 0 1014 -0.5 70
2019-11-25 12:00:00 16.3 4 Oeste 17 Sudoeste 0 1014.6 0.4 64
2019-11-25 11:00:00 15.3 13 Sudoeste 18 Sudoeste 0 1014.9 1 65
2019-11-25 10:00:00 16.9 9 Nordeste 13 Este 0 1014.5 0.8 59
2019-11-25 09:00:00 12.6 7 Norte 13 Norte 0 1014.2 1.1 70
2019-11-25 08:00:00 9.6 4 Nordeste 11 Nordeste 0 1013.9 0.7 79
2019-11-25 07:00:00 9.6 8 Norte 13 Norte 0 1013.7 0.7 76
2019-11-25 06:00:00 9.5 9 Norte 13 Norte 0 1013.1 0.3 75
2019-11-25 05:00:00 10.7 10 Oeste 22 Sudoeste 0 1013.2 0 69
2019-11-25 04:00:00 9.9 7 Norte 15 Norte 0 1013 0 76
2019-11-25 03:00:00 10.3 10 Norte 13 Oeste 0 1012.8 -0.1 79
2019-11-25 02:00:00 11.5 9 Noroeste 17 Noroeste 0 1013.2 0 76
2019-11-25 01:00:00 12 8 Norte 17 Norte 0 1013 0.1 63
2019-11-25 00:00:00 11.5 8 Norte 18 Norte 0 1012.9 -0.4 69
2019-11-24 23:00:00 12.1 12 Norte 22 Noroeste 0 1013.2 0.2 65
2019-11-24 22:00:00 11.1 9 Nordeste 17 Nordeste 0 1012.9 0 76
2019-11-24 21:00:00 11.2 8 Norte 15 Norte 0 1013.3 1.1 74
2019-11-24 20:00:00 11.5 8 Norte 11 Norte 0 1013 0.7 75
2019-11-24 19:00:00 12.5 4 Nordeste 8 Este 0 1012.9 1 73
2019-11-24 18:00:00 15.5 6 Sudoeste 17 Sudoeste 0 1012.2 0.7 66
2019-11-24 17:00:00 17 11 Sudoeste 15 Sudoeste 0 1012.3 0.3 62
2019-11-24 16:00:00 17.4 12 Sudoeste 17 Sudoeste 0 1011.9 -0.3 56
2019-11-24 15:00:00 17.8 13 Sudoeste 17 Sudoeste 0 1011.5 -1.2 54
2019-11-24 14:00:00 17.4 9 Sur 13 Sudoeste 0 1012 -0.6 58
2019-11-24 13:00:00 17.3 9 Sur 21 Sudeste 0 1012.2 -0.1 57
2019-11-24 12:00:00 18 18 Sudeste 26 Sudeste 0 1012.7 0.8 59
2019-11-24 11:00:00 18 20 Nordeste 30 Este 0 1012.6 1.5 37
2019-11-24 10:00:00 16.5 5 Sur 15 Este 0 1012.3 2.1 40
2019-11-24 09:00:00 12.8 6 Este 17 Sudeste 0 1011.9 2.6 52
2019-11-24 08:00:00 13.3 11 Este 33 Oeste 0 1011.1 1.9 50
2019-11-24 07:00:00 14.4 20 Oeste 41 Noroeste 0 1010.2 0.8 39
2019-11-24 06:00:00 14.6 30 Noroeste 48 Noroeste 0 1009.3 -0.5 41
2019-11-24 05:00:00 14.7 27 Noroeste 42 Noroeste 0 1009.2 -0.1 42
2019-11-24 04:00:00 13.3 14 Norte 28 Noroeste 0 1009.4 0.4 47
2019-11-24 03:00:00 11.9 13 Noroeste 17 Norte 0 1009.8 1.4 55
2019-11-24 02:00:00 14.2 14 Oeste 41 Noroeste 0 1009.3 0.5 44
2019-11-24 01:00:00 15.4 31 Noroeste 63 Noroeste 0 1009 1.1 39
2019-11-24 00:00:00 15.9 44 Noroeste 63 Noroeste 0 1008.4 1.1 39
2019-11-23 23:00:00 16 39 Noroeste 63 Noroeste 0 1008.8 2.1 40
2019-11-23 22:00:00 16.2 40 Noroeste 67 Noroeste 0 1007.9 2.4 40
2019-11-23 21:00:00 16.5 36 Noroeste 58 Noroeste 0 1007.3 3.6 40
2019-11-23 20:00:00 16.7 37 Noroeste 58 Noroeste 0 1006.7 5.7 38
2019-11-23 19:00:00 17 40 Norte 65 Norte 0 1005.5 6 37
2019-11-23 18:00:00 17.7 30 Oeste 78 Noroeste 0 1003.7 3.4 32
2019-11-23 17:00:00 19.2 34 Noroeste 68 Noroeste 0 1001 0.3 28
2019-11-23 16:00:00 20 58 Noroeste 84 Noroeste 0 999.5 -0.4 25
2019-11-23 15:00:00 20.7 39 Noroeste 63 Noroeste 0 1000.3 0 27
2019-11-23 14:00:00 19.6 35 Oeste 65 Oeste 0 1000.7 0.9 38
2019-11-23 13:00:00 20.3 35 Oeste 58 Noroeste 0 999.9 0.1 35
2019-11-23 12:00:00 19.6 23 Oeste 63 Noroeste 0 1000.3 1.3 38
2019-11-23 11:00:00 18.4 19 Oeste 41 Oeste 0 999.8 1.6 49
2019-11-23 10:00:00 17.7 22 Oeste 48 Oeste 0 999.8 3.5 46
2019-11-23 09:00:00 15.9 25 Noroeste 50 Noroeste 0 999 3.6 50
2019-11-23 08:00:00 15 32 Noroeste 50 Noroeste 0 998.2 3.8 54
2019-11-23 07:00:00 16.3 8 Sudeste 22 Norte 0 996.3 2.6 47
2019-11-23 06:00:00 14.5 4 Noroeste 32 Sudoeste 0 995.4 1.2 65
2019-11-23 05:00:00 15.9 22 Sudoeste 50 Sudoeste 0 994.4 0.1 67
2019-11-23 04:00:00 16.6 24 Sudoeste 48 Sudoeste 0 993.7 -0.9 61
2019-11-23 03:00:00 16.1 31 Oeste 48 Oeste 0 994.2 -1 63
2019-11-23 02:00:00 15.9 20 Oeste 33 Oeste 0 994.3 -1.7 66
2019-11-23 01:00:00 16.6 15 Oeste 41 Noroeste 0 994.6 -1.2 83
2019-11-23 00:00:00 16.8 9 Sudoeste 48 Oeste 0 995.2 -1.3 95
2019-11-22 23:00:00 17 39 Oeste 72 Sudoeste 1 996 -1.3 95
2019-11-22 22:00:00 16.7 47 Sudoeste 67 Sudoeste 2.5 995.8 -2 97
2019-11-22 21:00:00 15.9 18 Sudoeste 32 Sudoeste 1.9 996.5 -2.1 97
2019-11-22 20:00:00 14.9 14 Sur 22 Sudoeste 1 997.3 -1.7 97
2019-11-22 19:00:00 14.5 13 Oeste 28 Oeste 0.4 997.8 -1.7 98
2019-11-22 18:00:00 14.4 19 Sudoeste 26 Sudoeste 2.2 998.6 -2 98
2019-11-22 17:00:00 14.4 19 Sudoeste 37 Sudoeste 0.5 999 -3.1 97
2019-11-22 16:00:00 14.3 27 Sudoeste 35 Sudoeste 0.5 999.5 -3.6 98
2019-11-22 15:00:00 14.2 19 Oeste 28 Oeste 1.8 1000.6 -3.5 97
2019-11-22 14:00:00 14.6 13 Sudoeste 26 Sudoeste 1.9 1002.1 -2.8 98
2019-11-22 13:00:00 14.6 20 Sudoeste 28 Sudoeste 1.2 1003.1 -2.1 97
2019-11-22 12:00:00 14.8 12 Sudoeste 24 Oeste 0 1004.1 -1.1 96
2019-11-22 11:00:00 15 14 Sudoeste 30 Sudoeste 0.1 1004.9 0.3 96
2019-11-22 10:00:00 14.5 22 Sudoeste 39 Oeste 1.2 1005.2 0.5 97
2019-11-22 09:00:00 14.8 31 Sudoeste 48 Sudoeste 0.2 1005.2 0.2 95
2019-11-22 08:00:00 14.7 31 Sudoeste 46 Sudoeste 0 1004.6 -2.6 94
2019-11-22 07:00:00 15 24 Sudoeste 35 Sudoeste 0 1004.7 -0.7 96
2019-11-22 06:00:00 15.2 23 Sudoeste 33 Sudoeste 0 1005 -0.9 95
2019-11-22 05:00:00 15.2 6 Oeste 18 Oeste 0 1007.2 1.1 93
2019-11-22 04:00:00 15.1 9 Oeste -- -- -- 1005.4 -1.3 93
2019-11-22 03:00:00 14.8 12 Oeste 22 Sudoeste 0 1005.9 -1.3 93
2019-11-22 02:00:00 14.2 20 Sudoeste 28 Sudoeste 0 1006.1 -1.1 94
2019-11-22 01:00:00 14.3 14 Sudoeste 22 Sudoeste 0 1006.7 -0.8 92
2019-11-22 00:00:00 14.2 19 Sudoeste 32 Sudoeste 0 1007.2 -0.3 92
2019-11-21 23:00:00 14.3 21 Sudoeste 37 Sudoeste 0 1007.2 -0.1 93
2019-11-21 22:00:00 14.5 4 Oeste 24 Oeste 0 1007.5 0.4 89
2019-11-21 21:00:00 14.8 16 Sudoeste 35 Oeste 0 1007.5 0.6 84
2019-11-21 20:00:00 15.1 22 Sudoeste 35 Sudoeste 0 1007.3 0.5 83
2019-11-21 19:00:00 15.3 19 Sudoeste 30 Sudoeste 0 1007.1 0.5 83
2019-11-21 18:00:00 15.6 17 Sudoeste 37 Sudoeste 0 1006.9 -- 85
2019-11-21 17:00:00 16 31 Sudoeste 42 Sudoeste 0 1006.8 -0.4 84
2019-11-21 16:00:00 16.7 30 Sudoeste 48 Sudoeste 0 1006.6 -1.2 79
2019-11-21 15:00:00 -- -- -- -- -- -- -- -- --
2019-11-21 14:00:00 16.7 12 Oeste 37 Sudoeste 0 1007.2 -2.2 72
2019-11-21 13:00:00 15.2 30 Sudoeste 39 Sudoeste 0 1007.8 -1.4 83
2019-11-21 12:00:00 15.4 22 Sudoeste 30 Sudoeste 0 1009.1 0.2 81
2019-11-21 11:00:00 14.7 14 Oeste 22 Oeste 0 1009.4 0.9 74
2019-11-21 10:00:00 13.6 5 Noroeste 13 Noroeste 0 1009.2 1.2 75
2019-11-21 09:00:00 11.3 4 Noroeste 17 Noroeste 0 1008.9 0.9 74
2019-11-21 08:00:00 -- -- -- -- -- -- -- -- --
2019-11-21 07:00:00 -- -- -- -- -- -- -- -- --
2019-11-21 06:00:00 -- -- -- -- -- -- -- -- --
2019-11-21 05:00:00 -- -- -- -- -- -- -- -- --
2019-11-21 04:00:00 -- -- -- -- -- -- -- -- --
2019-11-21 03:00:00 -- -- -- -- -- -- -- -- --
2019-11-21 02:00:00 -- -- -- -- -- -- -- -- --
2019-11-21 01:00:00 -- -- -- -- -- -- -- -- --
2019-11-21 00:00:00 -- -- -- -- -- -- -- -- --
2019-11-20 23:00:00 -- -- -- -- -- -- -- -- --
2019-11-20 22:00:00 -- -- -- -- -- -- -- -- --
2019-11-20 21:00:00 -- -- -- -- -- -- -- -- --
2019-11-20 20:00:00 -- -- -- -- -- -- -- -- --
2019-11-20 19:00:00 14.6 33 Sudoeste 46 Sudoeste 0 1008 -0.2 75
2019-11-20 18:00:00 14.5 28 Sudoeste 54 Sudoeste 0 1007.9 -0.1 75
2019-11-20 17:00:00 14.8 30 Sudoeste 46 Sudoeste 0 1007.7 -0.9 75
2019-11-20 16:00:00 15.3 34 Sudoeste 46 Oeste 0 1008.2 -1.6 72
2019-11-20 15:00:00 16.6 30 Sudoeste 41 Sudoeste 0 1008 -2.6 64
2019-11-20 14:00:00 17 24 Sudoeste 33 Sudoeste 0 1008.6 -2.4 64
2019-11-20 13:00:00 15.9 10 Sur 13 Sur 0 1009.8 -1.1 65
2019-11-20 12:00:00 16.3 7 Sudeste 11 Sudeste 0 1010.6 -0.3 58
2019-11-20 11:00:00 14.7 2 Noroeste 18 Norte 0 1011 0.3 55
2019-11-20 10:00:00 12.6 16 Noroeste 28 Noroeste 0 1010.9 0.2 58
2019-11-20 09:00:00 10.3 20 Noroeste 28 Noroeste 0 1010.9 0.1 65
2019-11-20 08:00:00 9.6 14 Noroeste 26 Noroeste 0 1010.7 -0.3 71
2019-11-20 07:00:00 9.7 19 Noroeste 28 Noroeste 0 1010.7 -0.7 69
2019-11-20 06:00:00 10.5 17 Noroeste 24 Noroeste 0 1010.8 -0.9 71
2019-11-20 05:00:00 11.9 10 Noroeste 17 Norte 0 1011 -1 67
2019-11-20 04:00:00 11.7 10 Norte 15 Norte 0 1011.4 -1.3 66
2019-11-20 03:00:00 11.6 10 Norte 17 Noroeste 0 1011.7 -1.3 71
2019-11-20 02:00:00 11.1 5 Norte 11 Norte 0 1012 -1.2 74
2019-11-20 01:00:00 11.9 9 Norte 13 Norte 0 1012.7 -0.3 70
2019-11-20 00:00:00 12.3 10 Norte 21 Norte 0 1013 -0.1 66
2019-11-19 23:00:00 12 12 Norte 18 Norte 0 1013.2 -0.1 71
2019-11-19 22:00:00 11.1 10 Norte 13 Noroeste 0 1013 -0.1 76
2019-11-19 21:00:00 11.9 7 Norte 9 Norte 0 1013.1 0.2 71
2019-11-19 20:00:00 13 4 Noroeste 15 Oeste 0 1013.3 0.4 67
2019-11-19 19:00:00 14 13 Oeste 22 Sudoeste 0 1013.1 0.2 64
2019-11-19 18:00:00 15.2 13 Sudoeste 18 Sudoeste 0 1012.9 -0.2 66
2019-11-19 17:00:00 16.7 9 Sur 13 Sur 0 1012.9 -0.8 67
2019-11-19 16:00:00 16.5 9 Sur 18 Sur 0 1012.9 -1.4 66
2019-11-19 15:00:00 17.2 15 Sur 22 Sur 0 1013.1 -2.2 62
2019-11-19 14:00:00 17.6 16 Sudeste 21 Sur 0 1013.7 -2.2 62
2019-11-19 13:00:00 18.4 7 Sudeste 15 Este 0 1014.3 -1.7 49
2019-11-19 12:00:00 17.4 5 Sudeste 21 Noroeste 0 1015.3 -0.6 45
2019-11-19 11:00:00 15.5 14 Noroeste 30 Noroeste 0 1015.9 0.3 43
2019-11-19 10:00:00 13.4 21 Noroeste 32 Noroeste 0 1016 1 46
2019-11-19 09:00:00 10.9 24 Noroeste 32 Noroeste 0 1015.9 1.4 51
2019-11-19 08:00:00 10.5 12 Norte 26 Noroeste 0 1015.6 1 54
2019-11-19 07:00:00 10.9 20 Noroeste 28 Noroeste 0 1015 0.4 50
2019-11-19 06:00:00 10.1 19 Norte 28 Norte 0 1014.5 -0.1 53
2019-11-19 05:00:00 10.3 14 Norte 28 Noroeste 0 1014.6 0 52
2019-11-19 04:00:00 10.7 20 Noroeste 28 Noroeste 0 1014.6 0 49
2019-11-19 03:00:00 10.7 14 Norte 21 Noroeste 0 1014.6 0.1 51
2019-11-19 02:00:00 11.3 13 Norte 21 Norte 0 1014.6 0.2 49
2019-11-19 01:00:00 11.7 12 Nordeste 26 Norte 0 1014.6 0.8 48
2019-11-19 00:00:00 13.4 20 Norte 26 Norte 0 1014.5 1.1 42
2019-11-18 23:00:00 13.7 14 Norte 33 Noroeste 0 1014.4 1.5 41
2019-11-18 22:00:00 14.2 17 Norte 35 Noroeste 0 1013.8 2 41
2019-11-18 21:00:00 14.8 23 Noroeste 39 Norte 0 1013.4 2.4 40
2019-11-18 20:00:00 15.2 24 Norte 45 Norte 0 1012.9 2.5 39
2019-11-18 19:00:00 15.7 27 Noroeste 45 Noroeste 0 1011.8 2.4 37
2019-11-18 18:00:00 16.4 29 Noroeste 45 Noroeste 0 1011 2.3 35
2019-11-18 17:00:00 18 30 Noroeste 50 Noroeste 0 1010.4 1.7 33
2019-11-18 16:00:00 19 28 Noroeste 50 Noroeste 0 1009.4 1 32
2019-11-18 15:00:00 19.3 32 Noroeste 50 Noroeste 0 1008.7 0.3 32
2019-11-18 14:00:00 19.3 32 Noroeste 50 Noroeste 0 1008.7 0.4 33
2019-11-18 13:00:00 19.3 33 Noroeste 54 Noroeste 0 1008.4 0.5 32
2019-11-18 12:00:00 18.5 30 Noroeste 48 Noroeste 0 1008.4 1.6 35
2019-11-18 11:00:00 17.6 23 Noroeste 54 Noroeste 0 1008.3 2.1 42
2019-11-18 10:00:00 16.2 30 Noroeste 59 Norte 0 1007.9 1.9 48
2019-11-18 09:00:00 13.1 17 Noroeste 26 Oeste 0 1006.8 1.3 63
2019-11-18 08:00:00 12.5 17 Oeste 50 Noroeste 0 1006.2 1.3 66
2019-11-18 07:00:00 12.8 19 Noroeste 35 Noroeste 1.3 1006 -0.2 77
2019-11-18 06:00:00 14.2 21 Oeste 54 Sudoeste 0 1005.5 -1 84
2019-11-18 05:00:00 14.6 31 Sudoeste 55 Sudoeste 0 1004.9 -1.8 90
2019-11-18 04:00:00 14.5 34 Sudoeste 58 Oeste 0.5 1006.2 -1.6 92
2019-11-18 03:00:00 15 37 Oeste 68 Sudoeste 0 1006.5 -1.8 84
2019-11-18 02:00:00 14.9 35 Sudoeste 52 Oeste 0 1006.7 -2.3 84
2019-11-18 01:00:00 14.6 31 Sudoeste 52 Oeste 0 1007.8 -1.6 88
2019-11-18 00:00:00 13.8 32 Oeste 61 Sudoeste 0 1008.3 -1.9 79
2019-11-17 23:00:00 11.3 10 Oeste 26 Sudoeste 0 1009 -1.3 78
2019-11-17 22:00:00 12.2 2 Oeste 8 Oeste 0 1009.4 -1.3 83
2019-11-17 21:00:00 11.5 5 Noroeste 11 Norte 0 1010.2 -1 85
2019-11-17 20:00:00 12.2 6 Norte 21 Oeste 0 1010.3 -1.2 85
2019-11-17 19:00:00 14.2 14 Oeste 35 Oeste 0 1010.7 -0.9 81
2019-11-17 18:00:00 14.9 21 Sudoeste 41 Sudoeste 0 1011.2 -1.1 78
2019-11-17 17:00:00 16 31 Sudoeste 45 Sudoeste 0 1011.5 -1.5 67
2019-11-17 16:00:00 16 25 Sudoeste 39 Oeste 0 1011.6 -2.4 61
2019-11-17 15:00:00 16.6 22 Sudoeste 32 Oeste 0 1012.3 -2.5 50
2019-11-17 14:00:00 16.1 18 Oeste 24 Oeste 0 1013 -2.3 42
2019-11-17 13:00:00 15.1 9 Sudoeste 15 Sur 0 1014 -0.9 50
2019-11-17 12:00:00 15.7 10 Sudoeste 18 Sudoeste 0 1014.8 0.1 49
2019-11-17 11:00:00 15.7 10 Sudoeste 17 Sudoeste 0 1015.3 1 50
2019-11-17 10:00:00 14.8 5 Noroeste 17 Noroeste 0 1014.9 0.7 31
2019-11-17 09:00:00 10.7 9 Norte 15 Norte 0 1014.7 0.9 36
2019-11-17 08:00:00 8.2 11 Norte 17 Norte 0 1014.3 0.6 43
2019-11-17 07:00:00 8.7 14 Norte 21 Noroeste 0 1014.2 0.3 42
2019-11-17 06:00:00 9.2 13 Noroeste 28 Noroeste 0 1013.8 -0.4 35
2019-11-17 05:00:00 9.8 20 Noroeste 28 Noroeste 0 1013.7 -0.4 31
2019-11-17 04:00:00 10 12 Norte 18 Norte 0 1013.9 -0.1 36
2019-11-17 03:00:00 9.5 13 Noroeste 28 Norte 0 1014.2 0 39
2019-11-17 02:00:00 10.1 19 Norte 28 Norte 0 1014.1 -0.4 35
2019-11-17 01:00:00 12 19 Noroeste 33 Noroeste 0 1014 -0.1 33
2019-11-17 00:00:00 13.4 24 Noroeste 45 Noroeste 0 1014.2 0.8 32
2019-11-16 23:00:00 13.7 26 Noroeste 52 Noroeste 0 1014.5 1.3 34
2019-11-16 22:00:00 14.1 26 Noroeste 46 Noroeste 0 1014.1 1.6 31
2019-11-16 21:00:00 14.5 32 Noroeste 55 Norte 0 1013.4 1.7 31
2019-11-16 20:00:00 13.9 14 Oeste 30 Oeste 0 1013.2 1.9 40
2019-11-16 19:00:00 13.3 10 Oeste 33 Sudoeste 0 1012.5 1.5 57
2019-11-16 18:00:00 14.6 25 Sudoeste 35 Oeste 0 1011.7 0.9 42
2019-11-16 17:00:00 15.5 27 Sudoeste 39 Sudoeste 0 1011.3 0.5 49
2019-11-16 16:00:00 16.8 25 Sudoeste 33 Sudoeste 0 1011 0.1 44
2019-11-16 15:00:00 16.3 19 Sudoeste 26 Sudoeste 0 1010.8 -0.5 50
2019-11-16 14:00:00 16.3 16 Sudoeste 22 Sudoeste 0 1010.8 -0.3 45
2019-11-16 13:00:00 16.4 17 Sur 26 Sudoeste 0 1010.9 0.3 49
2019-11-16 12:00:00 16.3 14 Sudoeste 24 Sudoeste 0 1011.3 1.4 41
2019-11-16 11:00:00 15.9 12 Oeste 37 Noroeste 0 1011.1 2.1 28
2019-11-16 10:00:00 14.2 26 Noroeste 42 Noroeste 0 1010.6 2.5 33
2019-11-16 09:00:00 12.6 21 Noroeste 35 Noroeste 0 1009.9 2.6 39
2019-11-16 08:00:00 9.9 13 Oeste 35 Norte 0 1009 2.2 50
2019-11-16 07:00:00 10.3 16 Oeste 33 Noroeste 0 1008.1 1.7 48
2019-11-16 06:00:00 11.9 25 Noroeste 45 Noroeste 0 1007.3 1.3 43
2019-11-16 05:00:00 10.3 14 Noroeste 32 Noroeste 0 1006.8 1.4 50
2019-11-16 04:00:00 11 14 Noroeste 30 Oeste 0 1006.4 1 47
2019-11-16 03:00:00 11 14 Oeste 42 Norte 0 1006 0.6 45
2019-11-16 02:00:00 11.7 25 Noroeste 35 Noroeste 0 1005.4 0.2 43
2019-11-16 01:00:00 11.8 23 Noroeste 37 Noroeste 0 1005.4 0.8 43
2019-11-16 00:00:00 11.8 24 Noroeste 39 Noroeste 0 1005.4 1.1 42
2019-11-15 23:00:00 11.9 25 Noroeste 42 Noroeste 0 1005.2 1.3 41
2019-11-15 22:00:00 12.3 27 Noroeste 41 Noroeste 0 1004.6 1.5 38
2019-11-15 21:00:00 12.9 22 Noroeste 35 Noroeste 0 1004.3 1.6 35
2019-11-15 20:00:00 12.8 15 Noroeste 28 Noroeste 0 1003.9 1.4 34
2019-11-15 19:00:00 12.7 12 Oeste 24 Oeste 0 1003.1 0.8 55
2019-11-15 18:00:00 13.6 18 Oeste 39 Oeste 0 1002.7 0.3 50
2019-11-15 17:00:00 15.1 31 Sudoeste 41 Sudoeste 0 1002.5 -0.1 48
2019-11-15 16:00:00 15.5 28 Sudoeste 35 Sudoeste 0 1002.3 -0.5 49
2019-11-15 15:00:00 16.6 25 Sudoeste 37 Sudoeste 0 1002.4 -0.9 44
2019-11-15 14:00:00 16.7 25 Sudoeste 32 Sudoeste 0 1002.6 -1.1 49
2019-11-15 13:00:00 16.9 18 Noroeste 33 Norte 0 1002.8 -0.7 27
2019-11-15 12:00:00 17 9 Norte 24 Este 0 1003.3 0.4 35
2019-11-15 11:00:00 16.4 12 Este 24 Este 0 1003.7 1.5 38
2019-11-15 10:00:00 14.8 10 Este 15 Nordeste 0 1003.5 2 47
2019-11-15 09:00:00 12 2 Noroeste 21 Este 0 1002.9 1.9 48
2019-11-15 08:00:00 12.8 9 Norte 41 Noroeste 0 1002.2 1.1 36
2019-11-15 07:00:00 12.7 16 Noroeste 32 Noroeste 0 1001.5 -0.3 35
2019-11-15 06:00:00 12.8 26 Oeste 48 Noroeste 0 1001 -1 36
2019-11-15 05:00:00 12.6 12 Oeste 26 Oeste 0 1001.1 -1.1 39
2019-11-15 04:00:00 13.3 13 Oeste 41 Oeste 0 1001.8 -0.7 43
2019-11-15 03:00:00 13.2 15 Oeste 30 Oeste 0 1002 -0.4 39
2019-11-15 02:00:00 11.7 9 Oeste 17 Oeste 0 1002.2 -0.1 51
2019-11-15 01:00:00 11.7 10 Noroeste 22 Noroeste 0 1002.5 0.3 57
2019-11-15 00:00:00 14.7 19 Noroeste 48 Noroeste 0 1002.4 0.3 50
2019-11-14 23:00:00 15.4 23 Noroeste 45 Noroeste 0 1002.3 0.3 35
2019-11-14 22:00:00 15.4 34 Noroeste 55 Noroeste 0 1002.2 0 35
2019-11-14 21:00:00 14.7 19 Noroeste 35 Noroeste 0 1002.1 0.7 41
2019-11-14 20:00:00 13.9 13 Sudeste 22 Noroeste 0 1002 0.7 62
2019-11-14 19:00:00 15.1 7 Sudoeste 26 Noroeste 0 1002.2 1.1 44
2019-11-14 18:00:00 15.6 4 Nordeste 33 Sudoeste 0 1001.4 1.2 61
2019-11-14 17:00:00 16.1 12 Sudoeste 39 Oeste 0 1001.3 1.6 69
2019-11-14 16:00:00 16.3 38 Sudoeste 95 Sudoeste 0 1001.1 0.4 68
2019-11-14 15:00:00 16.9 59 Oeste 95 Oeste 0 1000.2 -1.4 63
2019-11-14 14:00:00 17 63 Oeste 84 Oeste 0 999.7 -2.5 65
2019-11-14 13:00:00 17.3 45 Sudoeste 68 Sudoeste 0 1000.7 -2.3 62
2019-11-14 12:00:00 17.1 42 Sudoeste 63 Sudoeste 0 1001.6 -2 58
2019-11-14 11:00:00 17.5 42 Sudoeste 59 Oeste 0 1002.2 -1.5 54
2019-11-14 10:00:00 17.3 40 Sudoeste 55 Oeste 0 1003 -1.1 60
2019-11-14 09:00:00 13.6 7 Noroeste 21 Sudoeste 0 1003.6 -1.4 74
2019-11-14 08:00:00 10.3 3 Norte 9 Norte 0 1003.7 -1.7 85
2019-11-14 07:00:00 10.6 4 Norte 15 Norte 0 1004.1 -2.8 87
2019-11-14 06:00:00 10.5 7 Oeste 13 Norte 0 1005 -3 85
2019-11-14 05:00:00 11.6 5 Este 11 Norte 0 1005.4 -3.4 79
2019-11-14 04:00:00 11.9 8 Norte 11 Norte 0 1006.9 -2.4 84
2019-11-14 03:00:00 12.6 6 Norte 15 Oeste 0 1008 -1.8 85
2019-11-14 02:00:00 14.1 16 Oeste 21 Oeste 0 1008.8 -0.5 85
2019-11-14 01:00:00 15.2 7 Sudoeste 22 Sudoeste 0 1009.3 -0.5 89
2019-11-14 00:00:00 15.1 6 Nordeste 22 Nordeste 0 1009.8 -0.1 77
2019-11-13 23:00:00 14.2 10 Este 37 Este 0 1009.3 -0.9 89
2019-11-13 22:00:00 18.8 17 Noroeste 28 Norte 0 1009.8 0.6 47
2019-11-13 21:00:00 14.6 10 Nordeste 22 Nordeste 0 1009.9 1.6 92
2019-11-13 20:00:00 15 15 Nordeste 21 Este 0 1010.2 2.4 88
2019-11-13 19:00:00 16.3 3 Sur 18 Oeste 0 1009.2 2.3 84
2019-11-13 18:00:00 17.6 19 Sudoeste 30 Sudoeste 0 1008.3 1.6 81
2019-11-13 17:00:00 19 24 Sudoeste 50 Sudoeste 0 1007.8 1 75
2019-11-13 16:00:00 20.1 26 Sudoeste 55 Sudoeste 0 1006.9 -0.2 67
2019-11-13 15:00:00 20.3 32 Sudoeste 59 Sudoeste 0 1006.7 -0.8 65
2019-11-13 14:00:00 21 23 Sudoeste 33 Sudoeste 0 1006.8 -0.8 64
2019-11-13 13:00:00 19.8 28 Sudoeste 48 Sur 0 1007.1 0 68
2019-11-13 12:00:00 20 18 Sudoeste 30 Sudoeste 0 1007.5 0.6 62
2019-11-13 11:00:00 18.8 23 Sudoeste 32 Sudoeste 0 1007.6 1.3 68
2019-11-13 10:00:00 17.9 22 Sudoeste 30 Sudoeste 0 1007.1 1 62
2019-11-13 09:00:00 15.5 5 Sudoeste 11 Sudoeste 0 1006.9 0.7 67
2019-11-13 08:00:00 12.2 8 Oeste 17 Oeste 0 1006.3 -0.5 69
2019-11-13 07:00:00 12.5 15 Oeste 24 Oeste 0 1006.1 -1.5 72
2019-11-13 06:00:00 11.1 9 Oeste 17 Norte 0 1006.2 -1.9 73
2019-11-13 05:00:00 11.8 5 Noroeste 13 Norte 0 1006.8 -2.1 83
2019-11-13 04:00:00 12.4 13 Norte 17 Norte 0 1007.6 -1.5 85
2019-11-13 03:00:00 13.3 5 Oeste 18 Sudoeste 0 1008.1 -1 78
2019-11-13 02:00:00 14 6 Oeste 32 Sudoeste 0 1008.9 -0.5 86
2019-11-13 01:00:00 14.3 21 Oeste 30 Oeste 0 1009.1 -0.9 77
2019-11-13 00:00:00 15.7 5 Oeste 35 Noroeste 0 1009.1 -0.8 49
2019-11-12 23:00:00 16 11 Noroeste 22 Noroeste 0 1009.4 -0.2 46
2019-11-12 22:00:00 13 9 Nordeste 13 Nordeste 0 1010 0.2 87
2019-11-12 21:00:00 13.6 6 Nordeste 13 Norte 0 1009.9 0.3 89
2019-11-12 20:00:00 14.4 8 Norte 11 Nordeste 0 1009.6 -0.1 91
2019-11-12 19:00:00 15.3 0 Calma 8 Sudeste 0 1009.8 0.4 89
2019-11-12 18:00:00 16.8 4 Sudeste 11 Sur 0 1009.6 -0.2 84
2019-11-12 17:00:00 18.3 9 Sur 17 Sur 0 1009.7 -0.3 80
2019-11-12 16:00:00 18.9 13 Sur 17 Sudoeste 0 1009.4 -1.1 75
2019-11-12 15:00:00 19.3 14 Sur 21 Sur 0 1009.8 -1.4 70
2019-11-12 14:00:00 19.6 15 Sur 22 Sur 0 1010 -1.3 69
2019-11-12 13:00:00 20.4 14 Sur 17 Sur 0 1010.5 -0.2 47
2019-11-12 12:00:00 19.9 9 Sur 17 Sudoeste 0 1011.2 0.2 44
2019-11-12 11:00:00 20.2 9 Sudoeste 21 Oeste 0 1011.3 0.6 38
2019-11-12 10:00:00 19.4 9 Nordeste 30 Norte 0 1010.7 0.5 32
2019-11-12 09:00:00 15.9 3 Norte 17 Sudoeste 0 1011 0.8 46
2019-11-12 08:00:00 14 10 Oeste 22 Norte 0 1010.7 0.6 49
2019-11-12 07:00:00 15.2 15 Noroeste 26 Noroeste 0 1010.2 -0.4 45
2019-11-12 06:00:00 14.9 17 Noroeste 21 Norte 0 1010.2 -0.5 47
2019-11-12 05:00:00 12.4 9 Noroeste 15 Noroeste 0 1010.1 -0.8 61
2019-11-12 04:00:00 13.7 10 Noroeste 18 Noroeste 0 1010.6 -0.7 57
2019-11-12 03:00:00 14.3 10 Oeste 17 Oeste 0 1010.7 -0.7 52
2019-11-12 02:00:00 14.9 9 Noroeste 15 Norte 0 1010.9 -0.2 50
2019-11-12 01:00:00 14.6 11 Sudoeste 17 Oeste 0 1011.3 0.7 54
2019-11-12 00:00:00 15.3 11 Sudoeste 26 Norte 0 1011.4 0.6 55
2019-11-11 23:00:00 18.2 9 Norte 32 Noroeste 0 1011.1 0.5 47
2019-11-11 22:00:00 18.3 18 Noroeste 37 Norte 0 1010.6 -0.4 47
2019-11-11 21:00:00 14.6 17 Nordeste 26 Este 0 1010.8 0.4 47
2019-11-11 20:00:00 13.3 11 Nordeste 15 Norte 0 1010.6 0.2 51
2019-11-11 19:00:00 13.6 8 Norte 15 Nordeste 0 1011 0.3 60
2019-11-11 18:00:00 15.1 6 Sudoeste 13 Sudoeste 0 1010.4 -0.5 64
2019-11-11 17:00:00 16.6 10 Sudoeste 15 Sur 0 1010.4 -0.6 59
2019-11-11 16:00:00 16.6 9 Sudoeste 18 Sudoeste 0 1010.7 -1.5 50
2019-11-11 15:00:00 16.3 13 Sudoeste 17 Sudoeste 0 1010.9 -2.2 63
2019-11-11 14:00:00 16.5 8 Sur 11 Sur 0 1011 -2.7 58
2019-11-11 13:00:00 16.7 8 Sur 13 Sudoeste 0 1012.2 -1.9 52
2019-11-11 12:00:00 17.2 9 Sudoeste 21 Sudoeste 0 1013.1 -1.4 43
2019-11-11 11:00:00 16.9 19 Oeste 37 Noroeste 0 1013.7 0.5 30
2019-11-11 10:00:00 16.2 13 Oeste 28 Noroeste 0 1014.1 1.5 32
2019-11-11 09:00:00 15.9 19 Noroeste 54 Noroeste 0 1014.5 1.6 30
2019-11-11 08:00:00 15.2 40 Noroeste 59 Noroeste 0 1013.2 0.1 34
2019-11-11 07:00:00 14.8 45 Noroeste 67 Noroeste 0 1012.6 0.5 36
2019-11-11 06:00:00 15 43 Noroeste 63 Noroeste 0 1012.9 -0.3 35
2019-11-11 05:00:00 14.8 37 Noroeste 72 Noroeste 0 1013.1 -1 36
2019-11-11 04:00:00 15 49 Noroeste 72 Noroeste 0 1012.1 -0.7 36
2019-11-11 03:00:00 15.1 35 Noroeste 50 Noroeste 0 1013.2 0.2 36
2019-11-11 02:00:00 15.1 18 Noroeste 50 Noroeste 0 1014.1 0.9 39
2019-11-11 01:00:00 15.5 37 Noroeste 63 Noroeste 0 1012.8 -0.9 38
2019-11-11 00:00:00 13.7 4 Nordeste 17 Norte 0 1013 0.3 44
2019-11-10 23:00:00 14.2 8 Oeste 28 Noroeste 0 1013.2 0.9 44
2019-11-10 22:00:00 15.2 18 Oeste 39 Noroeste 0 1013.7 0.9 39
2019-11-10 21:00:00 15.2 20 Noroeste 68 Noroeste 0 1012.7 0.5 38
2019-11-10 20:00:00 15.5 40 Noroeste 61 Noroeste 0 1012.3 0.2 37
2019-11-10 19:00:00 16.6 15 Noroeste 46 Noroeste 0 1012.8 1.7 30
2019-11-10 18:00:00 17 27 Noroeste 45 Oeste 0 1012.2 1.1 29
2019-11-10 17:00:00 17.6 25 Oeste 45 Oeste 0 1012.1 1.2 27
2019-11-10 16:00:00 17.9 15 Oeste 46 Oeste 0 1011.1 -0.4 26
2019-11-10 15:00:00 18.1 31 Oeste 58 Noroeste 0 1011.1 -0.8 28
2019-11-10 14:00:00 18.4 28 Oeste 54 Oeste 0 1010.9 -0.9 28
2019-11-10 13:00:00 18.9 28 Noroeste 67 Norte 0 1011.5 0.3 29
2019-11-10 12:00:00 18.7 19 Norte 41 Noroeste 0 1011.9 2.3 35
2019-11-10 11:00:00 18.5 26 Norte 45 Norte 0 1011.8 2.2 36
2019-11-10 10:00:00 18.5 26 Norte 74 Norte 0 1011.2 2.2 39
2019-11-10 09:00:00 18.3 49 Noroeste 80 Noroeste 0 1009.6 0.7 38
2019-11-10 08:00:00 16.8 9 Norte 24 Oeste 0 1009.6 -0.1 45
2019-11-10 07:00:00 15.3 18 Oeste 63 Noroeste 0 1009 -1.1 66
2019-11-10 06:00:00 18 35 Noroeste 65 Noroeste 0 1008.9 -2 40
2019-11-10 05:00:00 11.4 10 Oeste 24 Norte 0 1009.7 -1.8 72
2019-11-10 04:00:00 11.9 4 Nordeste 9 Norte 0 1010.1 -2.3 79
2019-11-10 03:00:00 12.3 5 Noroeste 13 Noroeste 0 1010.9 -2.7 78
2019-11-10 02:00:00 12.5 9 Noroeste 11 Norte 0 1011.5 -3 80
2019-11-10 01:00:00 12.9 10 Noroeste 13 Norte 0 1012.4 -2.7 80
2019-11-10 00:00:00 13.2 8 Norte 13 Norte 0 1013.6 -1.8 75